Time;durP1;ratioP1;P1;durP2;ratioP2;P2;SDS_P1;SDS_P2;PMS_P1;PMS_P2;Temp;Humidity;BMP_temperature;BMP_pressure;BME280_temperature;BME280_humidity;BME280_pressure;Samples;Min_cycle;Max_cycle;Signal;HPM_P1;HPM_P2
2022/11/22 00:00:42;;;;;;;48.73;45.00;;;;;;;-1.60;100.00;99936.50;4992720;28;20441;-45
2022/11/22 00:03:10;;;;;;;48.43;44.83;;;;;;;-1.59;100.00;99919.84;4992016;28;20998;-46
2022/11/22 00:05:39;;;;;;;48.00;44.47;;;;;;;-1.59;100.00;99933.75;4992618;28;20438;-45
2022/11/22 00:08:07;;;;;;;49.30;45.80;;;;;;;-1.56;100.00;99924.81;4992421;28;20469;-48
2022/11/22 00:10:34;;;;;;;49.90;46.20;;;;;;;-1.57;100.00;99921.38;4992340;28;20445;-45
2022/11/22 00:13:03;;;;;;;49.83;46.10;;;;;;;-1.56;100.00;99912.56;4991792;28;20826;-45
2022/11/22 00:15:31;;;;;;;52.27;47.83;;;;;;;-1.55;100.00;99906.34;4992354;28;20438;-48
2022/11/22 00:17:59;;;;;;;49.37;45.63;;;;;;;-1.55;100.00;99911.59;4992228;28;20520;-46
2022/11/22 00:20:27;;;;;;;49.67;45.97;;;;;;;-1.55;100.00;99906.34;4992291;28;20944;-48
2022/11/22 00:22:56;;;;;;;49.90;46.00;;;;;;;-1.57;100.00;99903.06;4991535;28;20809;-46
2022/11/22 00:25:24;;;;;;;49.53;45.70;;;;;;;-1.58;100.00;99890.94;4992771;28;20484;-45
2022/11/22 00:27:52;;;;;;;49.13;45.57;;;;;;;-1.59;100.00;99896.34;4992419;28;20457;-46
2022/11/22 00:30:20;;;;;;;49.23;45.43;;;;;;;-1.56;100.00;99901.28;4992276;28;20932;-45
2022/11/22 00:32:47;;;;;;;51.33;47.07;;;;;;;-1.56;100.00;99893.44;4991427;28;20469;-46
2022/11/22 00:35:15;;;;;;;50.47;46.47;;;;;;;-1.57;100.00;99894.41;4992182;28;20458;-45
2022/11/22 00:37:43;;;;;;;49.10;45.30;;;;;;;-1.58;100.00;99890.16;4992092;28;20465;-45
2022/11/22 00:40:12;;;;;;;49.53;45.93;;;;;;;-1.58;100.00;99898.00;4992560;28;20437;-47
2022/11/22 00:42:40;;;;;;;48.47;44.70;;;;;;;-1.55;100.00;99893.28;4991644;28;21059;-50
2022/11/22 00:45:08;;;;;;;49.53;45.40;;;;;;;-1.56;100.00;99883.81;4992328;28;20437;-48
2022/11/22 00:47:36;;;;;;;49.97;46.17;;;;;;;-1.55;100.00;99893.28;4992135;28;20469;-47
2022/11/22 00:50:04;;;;;;;50.80;46.43;;;;;;;-1.57;100.00;99892.59;4993656;28;20496;-49
2022/11/22 00:52:32;;;;;;;50.77;46.83;;;;;;;-1.56;100.00;99894.28;5006241;28;20469;-46
2022/11/22 00:54:59;;;;;;;49.90;45.67;;;;;;;-1.55;100.00;99900.31;5015781;28;20831;-45
2022/11/22 00:57:28;;;;;;;49.23;45.23;;;;;;;-1.52;100.00;99898.22;5015474;28;20464;-47
2022/11/22 00:59:56;;;;;;;49.43;45.50;;;;;;;-1.52;100.00;99898.22;5015538;28;20429;-45
2022/11/22 01:02:23;;;;;;;50.23;46.13;;;;;;;-1.49;100.00;99907.63;5014727;28;20469;-46
2022/11/22 01:04:51;;;;;;;49.30;45.13;;;;;;;-1.49;100.00;99897.16;5015354;28;20433;-47
2022/11/22 01:07:19;;;;;;;49.50;45.30;;;;;;;-1.50;100.00;99891.09;5015372;28;20461;-46
2022/11/22 01:09:46;;;;;;;48.60;44.57;;;;;;;-1.50;100.00;99883.25;5015493;28;20432;-45
2022/11/22 01:12:14;;;;;;;51.37;47.37;;;;;;;-1.49;100.00;99886.69;5014485;28;20481;-45
2022/11/22 01:14:43;;;;;;;50.77;46.43;;;;;;;-1.51;100.00;99875.53;5015292;28;20436;-45
2022/11/22 01:17:10;;;;;;;49.03;45.20;;;;;;;-1.51;100.00;99868.53;5014896;28;20465;-48
2022/11/22 01:19:38;;;;;;;54.03;48.90;;;;;;;-1.50;100.00;99872.78;5015580;28;20861;-45
2022/11/22 01:22:06;;;;;;;52.10;47.93;;;;;;;-1.48;100.00;99870.03;5014628;28;20460;-45
2022/11/22 01:24:33;;;;;;;52.17;47.57;;;;;;;-1.53;100.00;99856.56;5015108;28;20444;-47
2022/11/22 01:27:01;;;;;;;50.23;46.13;;;;;;;-1.54;100.00;99860.97;5015003;28;20463;-45
2022/11/22 01:29:29;;;;;;;52.17;47.77;;;;;;;-1.61;100.00;99862.47;5014997;28;20456;-49
2022/11/22 01:31:58;;;;;;;54.17;49.73;;;;;;;-1.59;100.00;99854.50;5014286;28;20470;-48
2022/11/22 01:34:25;;;;;;;54.90;50.20;;;;;;;-1.55;100.00;99861.91;5015003;28;20495;-45
2022/11/22 01:36:53;;;;;;;50.40;46.23;;;;;;;-1.56;100.00;99857.66;5014893;28;20460;-45
2022/11/22 01:39:21;;;;;;;52.33;47.87;;;;;;;-1.56;100.00;99857.66;5014924;28;20862;-47
2022/11/22 01:41:48;;;;;;;51.17;47.03;;;;;;;-1.56;100.00;99862.06;5014079;28;20866;-48
2022/11/22 01:44:21;;;;;;;52.57;47.97;;;;;;;-1.54;100.00;99858.34;5014658;28;20433;-45
2022/11/22 01:46:51;;;;;;;50.80;46.70;;;;;;;-1.55;100.00;99868.94;5014838;28;20459;-45
2022/11/22 01:49:27;;;;;;;49.77;45.50;;;;;;;-1.57;100.00;99866.47;5015006;28;20791;-45
2022/11/22 01:51:59;;;;;;;52.63;48.03;;;;;;;-1.60;100.00;99852.84;5013805;28;20507;-45
2022/11/22 01:54:32;;;;;;;53.00;48.40;;;;;;;-1.58;100.00;99853.56;5014452;28;20436;-45
2022/11/22 01:57:05;;;;;;;53.73;48.43;;;;;;;-1.57;100.00;99855.19;5014647;28;20531;-47
2022/11/22 01:59:36;;;;;;;53.70;49.30;;;;;;;-1.54;100.00;99860.13;5014459;28;20426;-46
2022/11/22 02:02:05;;;;;;;54.43;49.33;;;;;;;-1.51;100.00;99858.06;5013677;28;20461;-47
2022/11/22 02:04:37;;;;;;;53.73;49.57;;;;;;;-1.51;100.00;99849.38;5014321;28;20432;-45
2022/11/22 02:07:10;;;;;;;51.40;46.63;;;;;;;-1.49;100.00;99839.63;5014187;28;20465;-45
2022/11/22 02:09:40;;;;;;;51.60;47.00;;;;;;;-1.46;100.00;99842.75;5014236;28;20440;-46
2022/11/22 02:12:10;;;;;;;53.30;48.50;;;;;;;-1.42;100.00;99848.53;5013646;28;20966;-47
2022/11/22 02:14:40;;;;;;;52.03;47.63;;;;;;;-1.43;100.00;99842.47;5014082;28;20425;-45
2022/11/22 02:17:07;;;;;;;53.03;48.67;;;;;;;-1.40;100.00;99834.34;5013976;28;20546;-45
2022/11/22 02:19:42;;;;;;;51.87;47.57;;;;;;;-1.37;100.00;99847.13;5013899;28;20433;-45
2022/11/22 02:22:23;;;;;;;53.60;48.93;;;;;;;-1.36;100.00;99840.13;5013492;28;20467;-48
2022/11/22 02:24:55;;;;;;;52.60;48.20;;;;;;;-1.34;100.00;99846.03;5014077;28;20429;-45
2022/11/22 02:27:24;;;;;;;53.40;48.70;;;;;;;-1.31;100.00;99837.91;5013936;28;20519;-46
2022/11/22 02:29:52;;;;;;;52.90;48.40;;;;;;;-1.32;100.00;99838.88;5013867;28;20458;-47
2022/11/22 02:32:20;;;;;;;53.60;48.80;;;;;;;-1.33;100.00;99832.81;5013048;28;20468;-45
2022/11/22 02:34:49;;;;;;;52.50;48.20;;;;;;;-1.31;100.00;99835.28;5014108;28;20437;-45
2022/11/22 02:37:22;;;;;;;54.37;49.83;;;;;;;-1.32;100.00;99828.44;5013900;28;20969;-46
2022/11/22 02:39:52;;;;;;;55.00;50.20;;;;;;;-1.30;100.00;99822.06;5013790;28;20433;-45
2022/11/22 02:42:20;;;;;;;50.70;46.53;;;;;;;-1.29;100.00;99822.91;5012954;28;20994;-46
2022/11/22 02:44:49;;;;;;;54.10;49.70;;;;;;;-1.29;100.00;99812.44;5013542;28;20429;-45
2022/11/22 02:47:17;;;;;;;51.30;46.80;;;;;;;-1.21;100.00;99817.78;5013739;28;20593;-50
2022/11/22 02:49:44;;;;;;;50.40;46.43;;;;;;;-1.21;100.00;99812.53;5013667;28;20942;-46
2022/11/22 02:52:16;;;;;;;53.60;48.90;;;;;;;-1.17;100.00;99804.28;5012590;28;21048;-46
2022/11/22 02:54:43;;;;;;;50.37;46.03;;;;;;;-1.16;100.00;99808.53;5013378;28;20480;-51
2022/11/22 02:57:11;;;;;;;51.20;47.17;;;;;;;-1.14;100.00;99806.59;5013217;28;20452;-47
2022/11/22 02:59:39;;;;;;;53.23;48.50;;;;;;;-1.18;100.00;99807.03;5013554;28;21114;-47
2022/11/22 03:02:08;;;;;;;51.57;47.00;;;;;;;-1.15;100.00;99804.13;5012622;28;20464;-45
2022/11/22 03:04:35;;;;;;;53.33;48.70;;;;;;;-1.16;100.00;99797.22;5013282;28;20425;-45
2022/11/22 03:07:03;;;;;;;53.33;48.57;;;;;;;-1.11;100.00;99795.81;5013360;28;20480;-45
2022/11/22 03:09:31;;;;;;;52.27;47.70;;;;;;;-1.09;100.00;99794.84;5013090;28;20467;-46
2022/11/22 03:11:59;;;;;;;52.93;48.13;;;;;;;-1.11;100.00;99789.78;5011567;28;20465;-47
2022/11/22 03:14:27;;;;;;;53.97;49.67;;;;;;;-1.09;100.00;99785.22;5012907;28;20468;-48
2022/11/22 03:16:55;;;;;;;53.17;48.60;;;;;;;-1.09;100.00;99777.38;5012952;28;20473;-46
2022/11/22 03:19:24;;;;;;;53.13;48.90;;;;;;;-1.08;100.00;99776.41;5012976;28;20440;-46
2022/11/22 03:21:52;;;;;;;52.60;48.17;;;;;;;-1.04;100.00;99771.69;5012315;28;20464;-45
2022/11/22 03:24:19;;;;;;;56.13;51.10;;;;;;;-1.06;100.00;99774.47;5012741;28;20492;-48
2022/11/22 03:26:48;;;;;;;51.47;47.27;;;;;;;-1.08;100.00;99778.19;5012731;28;20965;-45
2022/11/22 03:29:16;;;;;;;50.93;46.70;;;;;;;-1.05;100.00;99772.69;5012829;28;20439;-47
2022/11/22 03:31:43;;;;;;;53.10;48.30;;;;;;;-1.00;100.00;99779.13;5012109;28;20444;-45
2022/11/22 03:34:12;;;;;;;51.50;47.20;;;;;;;-0.99;100.00;99778.16;5012690;28;20535;-45
2022/11/22 03:36:41;;;;;;;54.90;50.30;;;;;;;-0.99;100.00;99775.53;5012507;28;20461;-47
2022/11/22 03:39:08;;;;;;;52.23;47.53;;;;;;;-1.01;100.00;99777.47;5012818;28;20463;-45
2022/11/22 03:41:36;;;;;;;53.07;48.67;;;;;;;-1.03;100.00;99768.13;5012054;28;20435;-49
2022/11/22 03:44:04;;;;;;;53.77;49.33;;;;;;;-1.02;100.00;99761.91;5012610;28;20425;-45
2022/11/22 03:46:31;;;;;;;52.03;47.63;;;;;;;-1.04;100.00;99762.06;5012653;28;20457;-45
2022/11/22 03:48:59;;;;;;;51.07;46.73;;;;;;;-1.02;100.00;99767.16;5012390;28;20957;-46
2022/11/22 03:51:27;;;;;;;54.37;49.77;;;;;;;-0.99;100.00;99766.88;5011502;28;20437;-48
2022/11/22 03:53:57;;;;;;;53.70;49.37;;;;;;;-0.95;100.00;99758.56;5012413;28;20465;-45
2022/11/22 03:56:25;;;;;;;52.83;48.27;;;;;;;-0.90;100.00;99761.56;5012358;28;20464;-45
2022/11/22 03:58:52;;;;;;;52.37;47.87;;;;;;;-0.87;100.00;99763.91;5012247;28;20997;-46
2022/11/22 04:01:20;;;;;;;55.30;50.60;;;;;;;-0.93;100.00;99751.41;5012003;28;20434;-46
2022/11/22 04:03:48;;;;;;;55.60;50.77;;;;;;;-0.92;100.00;99746.97;5011666;28;20804;-45
2022/11/22 04:06:15;;;;;;;54.60;50.10;;;;;;;-0.87;100.00;99742.97;5012216;28;20460;-48
2022/11/22 04:08:43;;;;;;;54.20;49.60;;;;;;;-0.90;100.00;99752.91;5012138;28;20997;-47
2022/11/22 04:11:12;;;;;;;54.30;49.40;;;;;;;-0.84;100.00;99761.00;5011873;28;20491;-49
2022/11/22 04:16:25;;;;;;;52.03;47.30;;;;;;;-0.82;100.00;99764.28;5011781;28;21072;-50
2022/11/22 04:18:52;;;;;;;51.23;47.23;;;;;;;-0.79;100.00;99748.28;5012010;28;20428;-45
2022/11/22 04:21:34;;;;;;;53.47;49.00;;;;;;;-0.78;100.00;99752.53;5011702;28;20440;-45
2022/11/22 04:26:49;;;;;;;53.53;49.23;;;;;;;-0.71;100.00;99773.69;5011800;28;20468;-45
2022/11/22 04:29:18;;;;;;;54.40;49.83;;;;;;;-0.69;100.00;99774.38;5012073;28;20429;-48
2022/11/22 04:34:33;;;;;;;52.00;47.40;;;;;;;-0.63;100.00;99777.22;5011945;28;20472;-46
2022/11/22 04:37:01;;;;;;;51.63;47.60;;;;;;;-0.59;100.00;99775.13;5011211;28;21047;-51
2022/11/22 04:39:29;;;;;;;52.43;48.03;;;;;;;-0.56;100.00;99770.41;5011281;28;20429;-45
2022/11/22 04:44:44;;;;;;;54.20;49.73;;;;;;;-0.51;100.00;99759.50;5011698;28;20427;-47
2022/11/22 04:47:57;;;;;;;51.77;47.50;;;;;;;-0.46;100.00;99753.81;5011387;28;20456;-46
2022/11/22 04:50:01;;;;;;;55.13;50.43;;;;;;;-0.41;100.00;99759.41;5011461;28;20437;-45
2022/11/22 04:55:14;;;;;;;52.33;47.77;;;;;;;-0.39;100.00;99760.09;5011644;28;20986;-48
2022/11/22 04:57:43;;;;;;;50.23;45.87;;;;;;;-0.35;100.00;99758.81;5011616;28;20457;-46
2022/11/22 05:00:12;;;;;;;50.83;46.53;;;;;;;-0.33;100.00;99746.41;5011470;28;20433;-45
2022/11/22 05:02:39;;;;;;;50.47;46.27;;;;;;;-0.32;100.00;99737.56;5010917;28;20994;-46
2022/11/22 05:05:08;;;;;;;50.13;46.20;;;;;;;-0.28;100.00;99736.28;5011648;28;20479;-47
2022/11/22 05:07:35;;;;;;;51.67;47.50;;;;;;;-0.28;100.00;99744.97;5011581;28;20461;-45
2022/11/22 05:10:04;;;;;;;52.53;48.23;;;;;;;-0.29;100.00;99740.69;5011468;28;20927;-45
2022/11/22 05:12:32;;;;;;;54.93;50.43;;;;;;;-0.29;100.00;99737.25;5010677;28;20464;-47
2022/11/22 05:15:01;;;;;;;53.03;48.70;;;;;;;-0.28;100.00;99747.59;5011545;28;20476;-45
2022/11/22 05:17:28;;;;;;;55.07;50.40;;;;;;;-0.25;100.00;99751.69;5011269;28;20465;-47
2022/11/22 05:19:56;;;;;;;55.07;50.20;;;;;;;-0.23;100.00;99747.94;5011576;28;20435;-45
2022/11/22 05:25:09;;;;;;;51.47;47.50;;;;;;;-0.19;100.00;99748.47;5010527;28;20437;-45
2022/11/22 05:27:37;;;;;;;52.70;48.00;;;;;;;-0.15;100.00;99765.53;5011430;28;20453;-45
2022/11/22 05:30:07;;;;;;;51.87;47.60;;;;;;;-0.12;100.00;99765.25;5011284;28;20926;-45
2022/11/22 05:32:35;;;;;;;52.33;47.97;;;;;;;-0.12;100.00;99763.41;5025948;23;20539;-46
2022/11/22 05:35:02;;;;;;;52.00;47.37;;;;;;;-0.10;100.00;99760.66;5011340;28;20473;-44
2022/11/22 05:37:30;;;;;;;53.80;49.03;;;;;;;-0.07;100.00;99768.22;5015034;28;20445;-44
2022/11/22 05:39:57;;;;;;;53.53;49.13;;;;;;;-0.08;100.00;99758.69;5015299;28;20468;-44
2022/11/22 05:42:25;;;;;;;52.53;48.47;;;;;;;-0.09;100.00;99762.31;5014364;28;20465;-44
2022/11/22 05:44:52;;;;;;;54.87;50.67;;;;;;;-0.09;100.00;99754.47;5014895;28;20433;-46
2022/11/22 05:47:21;;;;;;;54.83;50.30;;;;;;;-0.07;100.00;99757.75;5014718;28;20969;-44
2022/11/22 05:49:49;;;;;;;53.00;48.53;;;;;;;-0.09;100.00;99763.13;5014974;28;20436;-44
2022/11/22 05:52:17;;;;;;;54.47;49.80;;;;;;;-0.11;100.00;99757.22;5013757;28;20533;-44
2022/11/22 05:54:44;;;;;;;51.53;47.20;;;;;;;-0.08;100.00;99759.53;5014732;28;20542;-44
2022/11/22 05:57:12;;;;;;;53.67;49.40;;;;;;;-0.09;100.00;99759.69;5014741;28;20507;-46
2022/11/22 05:59:39;;;;;;;54.80;50.20;;;;;;;-0.08;100.00;99758.69;5014662;28;20977;-44
2022/11/22 06:02:11;;;;;;;53.20;49.10;;;;;;;-0.07;100.00;99762.97;5013800;28;20471;-44
2022/11/22 06:04:40;;;;;;;51.53;47.43;;;;;;;-0.12;100.00;99758.19;5014274;28;20528;-44
2022/11/22 06:07:07;;;;;;;54.33;49.77;;;;;;;-0.11;100.00;99769.50;5014341;28;20437;-44
2022/11/22 06:09:37;;;;;;;52.63;48.23;;;;;;;-0.09;100.00;99763.13;5014459;28;20479;-44
2022/11/22 06:12:05;;;;;;;53.00;48.70;;;;;;;-0.06;100.00;99760.19;5013584;28;20461;-44
2022/11/22 06:14:32;;;;;;;52.50;48.10;;;;;;;-0.03;100.00;99756.47;5014176;28;20473;-44
2022/11/22 06:17:06;;;;;;;53.60;49.10;;;;;;;-0.05;100.00;99761.84;5014032;28;20464;-45
2022/11/22 06:19:34;;;;;;;53.60;49.30;;;;;;;-0.02;100.00;99764.16;5014358;28;20787;-44
2022/11/22 06:22:02;;;;;;;53.03;48.80;;;;;;;-0.03;100.00;99759.88;5013606;28;20449;-44
2022/11/22 06:24:30;;;;;;;54.43;50.03;;;;;;;0.01;100.00;99765.66;5014125;28;20440;-46
2022/11/22 06:26:58;;;;;;;53.03;48.37;;;;;;;0.02;100.00;99766.47;5014173;28;20507;-44
2022/11/22 06:29:25;;;;;;;52.63;48.40;;;;;;;0.01;100.00;99773.50;5013884;28;20425;-42
2022/11/22 06:31:53;;;;;;;54.33;49.93;;;;;;;0.07;100.00;99767.66;5012836;28;20515;-45
2022/11/22 06:34:25;;;;;;;53.30;48.83;;;;;;;0.07;100.00;99762.41;5014001;28;20433;-44
2022/11/22 06:36:53;;;;;;;53.93;49.57;;;;;;;0.08;100.00;99776.34;5013857;28;20495;-44
2022/11/22 06:39:22;;;;;;;53.67;49.40;;;;;;;0.12;100.00;99780.31;5013693;28;20436;-44
2022/11/22 06:41:49;;;;;;;54.77;50.40;;;;;;;0.11;100.00;99782.13;5012803;28;20461;-45
2022/11/22 06:44:17;;;;;;;54.37;49.97;;;;;;;0.10;100.00;99777.84;5013606;28;20437;-44
2022/11/22 06:46:44;;;;;;;54.57;49.97;;;;;;;0.09;100.00;99775.38;5013629;28;20437;-43
2022/11/22 06:49:12;;;;;;;53.37;48.97;;;;;;;0.11;100.00;99778.66;5013343;28;20432;-45
2022/11/22 06:51:40;;;;;;;56.50;51.70;;;;;;;0.14;100.00;99776.56;5012561;28;20449;-46
2022/11/22 06:54:10;;;;;;;53.17;48.77;;;;;;;0.19;100.00;99776.91;5013289;28;20576;-45
2022/11/22 06:56:40;;;;;;;55.80;51.10;;;;;;;0.18;100.00;99772.66;5013503;28;20873;-44
2022/11/22 06:59:09;;;;;;;55.37;50.27;;;;;;;0.24;100.00;99779.91;5013532;28;20433;-44
2022/11/22 07:01:37;;;;;;;52.97;48.27;;;;;;;0.23;100.00;99782.69;5012623;28;20526;-45
2022/11/22 07:04:05;;;;;;;55.40;50.67;;;;;;;0.26;100.00;99785.00;5013215;28;20537;-45
2022/11/22 07:06:35;;;;;;;56.43;51.67;;;;;;;0.28;100.00;99777.78;5013249;28;20440;-44
2022/11/22 07:09:06;;;;;;;51.40;47.27;;;;;;;0.29;100.00;99776.81;5013120;28;20429;-46
2022/11/22 07:11:34;;;;;;;54.10;49.40;;;;;;;0.30;100.00;99773.25;5012122;28;20453;-48
2022/11/22 07:14:05;;;;;;;55.00;50.73;;;;;;;0.33;100.00;99770.31;5013195;28;20443;-46
2022/11/22 07:16:36;;;;;;;55.90;51.27;;;;;;;0.34;100.00;99771.94;5012964;28;20910;-45
2022/11/22 07:19:05;;;;;;;56.70;51.80;;;;;;;0.38;100.00;99779.34;5012846;28;20437;-45
2022/11/22 07:21:32;;;;;;;56.07;51.57;;;;;;;0.44;100.00;99786.59;5012123;28;20460;-44
2022/11/22 07:24:00;;;;;;;56.03;50.97;;;;;;;0.46;100.00;99784.63;5012838;28;20429;-44
2022/11/22 07:26:27;;;;;;;55.20;50.80;;;;;;;0.45;100.00;99785.59;5013006;28;20424;-47
2022/11/22 07:28:55;;;;;;;55.73;51.17;;;;;;;0.40;100.00;99780.00;5012958;28;20437;-44
2022/11/22 07:31:25;;;;;;;55.47;50.97;;;;;;;0.41;100.00;99780.84;5012353;28;20483;-44
2022/11/22 07:33:52;;;;;;;52.73;48.53;;;;;;;0.46;100.00;99784.63;5012450;28;20433;-44
2022/11/22 07:36:21;;;;;;;54.43;49.73;;;;;;;0.46;100.00;99778.56;5012939;28;21149;-44
2022/11/22 07:38:49;;;;;;;55.70;50.97;;;;;;;0.46;100.00;99779.41;5012827;28;20499;-44
2022/11/22 07:41:18;;;;;;;52.87;48.50;;;;;;;0.47;100.00;99781.03;5012305;28;20866;-46
2022/11/22 07:43:45;;;;;;;52.93;48.73;;;;;;;0.48;100.00;99774.81;5012058;28;20615;-45
2022/11/22 07:46:21;;;;;;;53.97;49.27;;;;;;;0.49;100.00;99776.47;5012447;28;20964;-43
2022/11/22 07:48:50;;;;;;;55.07;50.17;;;;;;;0.48;100.00;99758.22;5012348;28;20436;-45
2022/11/22 07:51:18;;;;;;;55.73;50.60;;;;;;;0.48;100.00;99769.56;5011942;28;20970;-44
2022/11/22 07:53:46;;;;;;;54.43;50.00;;;;;;;0.49;100.00;99770.38;5011802;28;20464;-45
2022/11/22 07:56:14;;;;;;;54.10;49.60;;;;;;;0.53;100.00;99754.19;5012355;28;20531;-43
2022/11/22 07:58:41;;;;;;;56.17;51.57;;;;;;;0.52;100.00;99756.97;5012164;28;20443;-44
2022/11/22 08:01:10;;;;;;;54.07;49.20;;;;;;;0.57;100.00;99757.31;5012195;28;21024;-45
2022/11/22 08:03:39;;;;;;;54.73;50.40;;;;;;;0.60;100.00;99757.00;5011878;28;20475;-45
2022/11/22 08:06:09;;;;;;;54.50;49.90;;;;;;;0.60;100.00;99764.06;5012489;28;20783;-43
2022/11/22 08:08:37;;;;;;;54.70;50.27;;;;;;;0.62;100.00;99755.06;5012271;28;20437;-44
2022/11/22 08:11:06;;;;;;;54.30;49.60;;;;;;;0.63;100.00;99761.91;5012012;28;20452;-44
2022/11/22 08:13:34;;;;;;;52.20;48.10;;;;;;;0.67;100.00;99751.94;5011648;28;21001;-45
2022/11/22 08:16:03;;;;;;;52.67;48.23;;;;;;;0.71;100.00;99750.66;5012054;28;20885;-44
2022/11/22 08:18:32;;;;;;;54.90;50.20;;;;;;;0.74;100.00;99742.47;5012361;28;20441;-44
2022/11/22 08:21:09;;;;;;;54.27;49.37;;;;;;;0.73;100.00;99743.44;5011784;28;20437;-43
2022/11/22 08:23:38;;;;;;;51.80;47.67;;;;;;;0.75;100.00;99749.34;5011599;28;20471;-45
2022/11/22 08:26:07;;;;;;;55.07;50.20;;;;;;;0.77;100.00;99755.28;5011947;28;20918;-44
2022/11/22 08:28:35;;;;;;;53.93;49.70;;;;;;;0.78;100.00;99751.66;5012388;28;20942;-44
2022/11/22 08:31:05;;;;;;;54.37;49.93;;;;;;;0.80;100.00;99754.97;5011906;28;20433;-45
2022/11/22 08:33:32;;;;;;;53.53;49.23;;;;;;;0.85;100.00;99757.94;5011562;28;21001;-45
2022/11/22 08:36:00;;;;;;;53.40;48.90;;;;;;;0.90;100.00;99763.50;5012126;28;20477;-44
2022/11/22 08:38:29;;;;;;;52.60;48.00;;;;;;;0.88;100.00;99762.84;5011969;28;20433;-45
2022/11/22 08:40:57;;;;;;;55.87;51.30;;;;;;;0.93;100.00;99748.28;5011453;28;20429;-44
2022/11/22 08:43:25;;;;;;;52.70;48.80;;;;;;;0.96;100.00;99757.63;5011491;28;20526;-44
2022/11/22 08:45:55;;;;;;;53.60;49.07;;;;;;;1.00;100.00;99761.59;5012003;28;20456;-44
2022/11/22 08:48:23;;;;;;;55.13;50.53;;;;;;;1.07;100.00;99773.94;5011952;28;20445;-44
2022/11/22 08:50:52;;;;;;;54.37;49.97;;;;;;;1.13;100.00;99765.38;5011532;28;20437;-45
2022/11/22 08:53:19;;;;;;;56.70;51.40;;;;;;;1.17;100.00;99773.78;5010995;28;20465;-46
2022/11/22 08:55:48;;;;;;;54.50;50.00;;;;;;;1.18;100.00;99769.34;5011695;28;20974;-44
2022/11/22 08:58:16;;;;;;;53.90;49.70;;;;;;;1.16;100.00;99766.06;5011698;28;20432;-44
2022/11/22 09:00:44;;;;;;;53.40;48.90;;;;;;;1.22;100.00;99771.50;5011711;28;20947;-44
2022/11/22 09:03:12;;;;;;;56.37;51.47;;;;;;;1.21;100.00;99769.84;5011219;28;20472;-46
2022/11/22 09:05:39;;;;;;;56.70;52.00;;;;;;;1.22;100.00;99776.75;5011813;28;20433;-45
2022/11/22 09:08:27;;;;;;;55.77;51.07;;;;;;;1.24;100.00;99782.66;5011524;28;20520;-46
2022/11/22 09:11:04;;;;;;;53.53;49.20;;;;;;;1.28;100.00;99785.81;5012977;28;20532;-46
2022/11/22 09:13:31;;;;;;;54.87;50.60;;;;;;;1.24;100.00;99779.22;5014926;28;20464;-43
2022/11/22 09:16:01;;;;;;;52.83;48.93;;;;;;;1.26;100.00;99778.06;5015331;28;20473;-46
2022/11/22 09:18:29;;;;;;;53.60;49.07;;;;;;;1.31;100.00;99780.22;5015380;28;20441;-46
2022/11/22 09:21:00;;;;;;;55.10;50.50;;;;;;;1.32;100.00;99768.72;5015276;28;20487;-45
2022/11/22 09:23:27;;;;;;;52.83;48.57;;;;;;;1.27;100.00;99781.53;5014917;28;20473;-45
2022/11/22 09:25:59;;;;;;;57.20;52.70;;;;;;;1.29;100.00;99780.38;5015374;28;20776;-47
2022/11/22 09:28:28;;;;;;;55.70;50.90;;;;;;;1.29;100.00;99769.88;5015362;28;20842;-44
2022/11/22 09:31:00;;;;;;;56.40;52.00;;;;;;;1.24;100.00;99768.72;5014614;28;20444;-44
2022/11/22 09:33:28;;;;;;;54.90;50.60;;;;;;;1.27;100.00;99784.16;5014641;28;20985;-45
2022/11/22 09:36:00;;;;;;;54.27;50.20;;;;;;;1.25;100.00;99784.31;5014910;28;20487;-44
2022/11/22 09:38:28;;;;;;;56.23;51.70;;;;;;;1.24;100.00;99787.91;5014938;28;20436;-45
2022/11/22 09:40:55;;;;;;;57.37;52.90;;;;;;;1.23;100.00;99782.81;5014838;28;20433;-44
2022/11/22 09:43:37;;;;;;;56.30;51.70;;;;;;;1.19;100.00;99782.34;5014391;28;20812;-44
2022/11/22 09:46:29;;;;;;;57.23;52.67;;;;;;;1.18;100.00;99775.44;5014898;28;20429;-44
2022/11/22 09:49:25;;;;;;;60.20;55.40;;;;;;;1.21;100.00;99776.91;5015000;28;20495;-44
2022/11/22 09:52:01;;;;;;;59.90;54.80;;;;;;;1.18;100.00;99775.44;5014031;28;20487;-45
2022/11/22 09:54:37;;;;;;;58.10;52.90;;;;;;;1.19;100.00;99782.34;5014572;28;20439;-44
2022/11/22 09:57:13;;;;;;;55.40;50.80;;;;;;;1.13;100.00;99778.53;5014573;28;20973;-43
2022/11/22 09:59:45;;;;;;;56.53;51.87;;;;;;;1.17;100.00;99773.78;5014968;28;20420;-46
2022/11/22 10:02:20;;;;;;;57.30;52.50;;;;;;;1.16;100.00;99773.94;5013762;28;20512;-45
2022/11/22 10:04:54;;;;;;;58.83;53.80;;;;;;;1.21;100.00;99788.25;5014614;28;20487;-44
2022/11/22 10:07:29;;;;;;;55.73;51.00;;;;;;;1.21;100.00;99776.91;5014856;28;20440;-45
2022/11/22 10:10:04;;;;;;;58.57;53.83;;;;;;;1.20;100.00;99778.72;5014494;28;20806;-44
2022/11/22 10:12:38;;;;;;;54.50;50.30;;;;;;;1.26;100.00;99778.06;5013647;28;20925;-45
2022/11/22 10:15:19;;;;;;;53.90;49.60;;;;;;;1.34;100.00;99775.47;5014526;28;20432;-45
2022/11/22 10:17:52;;;;;;;57.67;52.73;;;;;;;1.30;100.00;99776.78;5014127;28;20469;-46
2022/11/22 10:20:21;;;;;;;56.43;51.93;;;;;;;1.29;100.00;99783.00;5014258;28;20429;-44
2022/11/22 10:22:50;;;;;;;57.50;52.80;;;;;;;1.31;100.00;99782.84;5012982;28;20472;-45
2022/11/22 10:25:19;;;;;;;55.40;50.57;;;;;;;1.31;100.00;99782.84;5014264;28;20440;-44
2022/11/22 10:27:53;;;;;;;59.30;54.20;;;;;;;1.33;100.00;99788.75;5014232;28;20807;-44
2022/11/22 10:30:32;;;;;;;58.47;53.80;;;;;;;1.35;100.00;99789.41;5014008;28;20945;-45
2022/11/22 10:33:08;;;;;;;56.83;52.00;;;;;;;1.31;100.00;99785.47;5013180;28;20469;-44
2022/11/22 10:35:52;;;;;;;55.50;50.83;;;;;;;1.31;100.00;99788.94;5013782;28;20429;-45
2022/11/22 10:38:39;;;;;;;55.60;51.30;;;;;;;1.24;100.00;99793.19;5013864;28;20986;-46
2022/11/22 10:41:18;;;;;;;59.13;53.90;;;;;;;1.22;100.00;99781.19;5013630;28;20449;-43
2022/11/22 10:43:53;;;;;;;59.83;54.43;;;;;;;1.23;100.00;99788.91;5013345;28;20472;-45
2022/11/22 10:46:29;;;;;;;57.37;52.07;;;;;;;1.28;100.00;99789.25;5013958;28;20435;-44
2022/11/22 10:49:06;;;;;;;56.30;51.60;;;;;;;1.23;100.00;99782.81;5013858;28;20429;-45
2022/11/22 10:51:47;;;;;;;57.33;52.43;;;;;;;1.30;100.00;99787.28;5012658;28;20448;-44
2022/11/22 10:54:25;;;;;;;55.97;50.60;;;;;;;1.32;100.00;99792.34;5013449;28;20421;-45
2022/11/22 10:57:00;;;;;;;57.00;52.10;;;;;;;1.30;100.00;99782.03;5013600;28;20476;-44
2022/11/22 10:59:47;;;;;;;56.73;51.77;;;;;;;1.31;100.00;99783.69;5013595;28;20910;-45
2022/11/22 11:02:45;;;;;;;57.27;52.50;;;;;;;1.36;100.00;99788.44;5012791;28;20468;-44
2022/11/22 11:05:18;;;;;;;57.97;52.87;;;;;;;1.33;100.00;99786.97;5013491;28;20437;-44
2022/11/22 11:07:50;;;;;;;63.93;57.43;;;;;;;1.41;100.00;99794.84;5013375;28;20941;-46
2022/11/22 11:10:32;;;;;;;60.57;54.70;;;;;;;1.47;100.00;99785.50;5013404;28;20464;-44
2022/11/22 11:13:04;;;;;;;62.67;56.63;;;;;;;1.47;100.00;99788.13;5012442;28;20464;-48
2022/11/22 11:15:37;;;;;;;60.47;55.43;;;;;;;1.53;100.00;99785.69;5013299;28;20425;-48
2022/11/22 11:18:15;;;;;;;61.17;55.83;;;;;;;1.60;100.00;99806.88;5013351;28;20476;-45
2022/11/22 11:20:46;;;;;;;59.30;54.30;;;;;;;1.61;100.00;99808.53;5013045;28;20948;-46
2022/11/22 11:23:14;;;;;;;57.60;52.87;;;;;;;1.58;100.00;99799.16;5012606;28;20605;-44
2022/11/22 11:25:44;;;;;;;58.23;53.47;;;;;;;1.62;100.00;99800.47;5013181;28;20464;-43
2022/11/22 11:28:17;;;;;;;59.73;54.10;;;;;;;1.59;100.00;99803.44;5013284;28;20429;-44
2022/11/22 11:30:47;;;;;;;58.33;52.87;;;;;;;1.62;100.00;99808.34;5012914;28;20425;-44
2022/11/22 11:33:27;;;;;;;56.67;51.83;;;;;;;1.60;100.00;99806.88;5050458;23;20451;-46
2022/11/22 11:36:05;;;;;;;56.80;51.90;;;;;;;1.65;100.00;99810.66;4993149;28;20429;-46
2022/11/22 11:38:36;;;;;;;58.63;52.67;;;;;;;1.65;100.00;99801.94;4993765;28;20462;-44
2022/11/22 11:41:29;;;;;;;57.30;52.43;;;;;;;1.62;100.00;99808.34;4993139;28;20982;-45